Airport Name : New Tanegashima

Other Name : Tanegashima

ICAO : RJFG

IATA : TNE

FAA :

Latitude : 30.605

Longitude : 130.991667

Country : Japan

Local Date and Time : 5/19/2019 3:25:00 PM

 

TAF (Terminal Aerodrome Forecast)

 

METAR (METeorological Aerodrome Report)

RJFG 190600Z 12019G30KT 0500 R31/0300V0750U SHRA FG FEW001 SCT002 BKN004 22/21 Q1009

RJFG 190500Z 12013KT 0300 R31/0200V0300N SHRA FG FEW000 SCT001 BKN002 22/21 Q1010

RJFG 190429Z 11017G28KT 0400 R31/0300V0400N SHRA FG FEW000 SCT001 BKN002 22/21 Q1010 RMK 1ST000 3ST001 5ST002 A2984

RJFG 190400Z 12021G35KT 0500 R31/0350V0650N -SHRA FG FEW001 SCT002 BKN004 22/21 Q1010

RJFG 190308Z 12016G26KT 080V140 0500 R31/0300V0400N SHRA FG FEW001 SCT002 BKN003 22/21 Q1010 RMK 1ST001 3ST002 5ST003 A2985

RJFG 190300Z 12015KT 0400 R31/0300V0800D -SHRA FG FEW000 SCT001 BKN002 22/21 Q1010